Time;durP1;ratioP1;P1;durP2;ratioP2;P2;SDS_P1;SDS_P2;PMS_P1;PMS_P2;Temp;Humidity;BMP_temperature;BMP_pressure;BME280_temperature;BME280_humidity;BME280_pressure;Samples;Min_cycle;Max_cycle;Signal;HPM_P1;HPM_P2
2023/06/14 00:02:17;;;;;;;2.35;1.67;;;;;;;25.09;61.46;100504.19;5074708;28;20052;-58
2023/06/14 00:04:45;;;;;;;3.17;2.28;;;;;;;25.09;61.22;100503.34;5074285;28;20055;-58
2023/06/14 00:07:13;;;;;;;3.75;2.00;;;;;;;25.09;61.16;100498.78;5074678;28;20420;-58
2023/06/14 00:09:41;;;;;;;3.85;2.22;;;;;;;25.10;61.16;100497.75;5074518;28;20056;-58
2023/06/14 00:12:08;;;;;;;4.25;2.33;;;;;;;25.09;61.23;100501.47;5074450;28;20044;-57
2023/06/14 00:14:36;;;;;;;4.40;2.28;;;;;;;25.10;61.15;100495.03;5074548;28;20049;-58
2023/06/14 00:17:03;;;;;;;3.90;1.98;;;;;;;25.09;61.20;100492.50;5074285;28;20051;-57
2023/06/14 00:19:34;;;;;;;5.32;1.98;;;;;;;25.09;61.10;100496.06;5073677;28;20051;-58
2023/06/14 00:22:03;;;;;;;3.17;2.08;;;;;;;25.09;60.82;100506.91;5074698;28;20055;-51
2023/06/14 00:24:30;;;;;;;4.45;1.88;;;;;;;25.09;61.06;100504.19;5074420;28;20048;-52
2023/06/14 00:26:57;;;;;;;3.25;1.77;;;;;;;25.09;60.88;100498.78;5074263;28;20052;-53
2023/06/14 00:29:25;;;;;;;4.53;2.00;;;;;;;25.10;60.95;100495.03;5074212;28;20040;-53
2023/06/14 00:31:52;;;;;;;5.38;2.33;;;;;;;25.10;60.90;100505.88;5074296;28;20059;-51
2023/06/14 00:34:20;;;;;;;2.78;1.67;;;;;;;25.09;60.93;100492.50;5074100;28;20053;-51
2023/06/14 00:36:47;;;;;;;3.78;2.15;;;;;;;25.09;60.78;100497.94;5072954;28;20055;-53
2023/06/14 00:39:15;;;;;;;3.78;2.20;;;;;;;25.09;60.96;100500.66;5074242;28;20420;-51
2023/06/14 00:41:42;;;;;;;3.33;2.08;;;;;;;25.10;60.92;100500.44;5073867;28;20045;-53
2023/06/14 00:44:10;;;;;;;3.35;2.15;;;;;;;25.10;60.98;100495.03;5074040;28;20480;-53
2023/06/14 00:46:37;;;;;;;6.10;2.55;;;;;;;25.10;60.78;100489.63;5073961;28;20052;-54
2023/06/14 00:49:06;;;;;;;3.38;2.28;;;;;;;25.10;60.72;100489.63;5072515;28;20053;-51
2023/06/14 00:51:33;;;;;;;4.50;2.35;;;;;;;25.10;60.88;100491.50;5072367;28;20052;-57
2023/06/14 00:54:01;;;;;;;3.42;1.98;;;;;;;25.10;60.80;100484.19;5073354;28;20515;-57
2023/06/14 00:56:29;;;;;;;2.83;1.83;;;;;;;25.09;60.78;100478.97;5073647;28;20055;-58
2023/06/14 00:58:58;;;;;;;2.65;1.63;;;;;;;25.09;60.67;100478.97;5073595;28;20047;-58
2023/06/14 01:01:25;;;;;;;2.78;2.03;;;;;;;25.09;60.64;100477.09;5072880;28;20515;-51
2023/06/14 01:03:53;;;;;;;3.70;2.00;;;;;;;25.09;60.49;100477.09;5072762;28;20060;-53
2023/06/14 01:06:26;;;;;;;4.53;2.15;;;;;;;25.09;60.41;100481.69;5072233;28;20048;-52
2023/06/14 01:09:12;;;;;;;3.60;2.05;;;;;;;25.09;60.44;100485.22;5073547;28;20037;-53
2023/06/14 01:11:54;;;;;;;3.78;2.22;;;;;;;25.08;60.41;100478.09;5073044;28;20040;-57
2023/06/14 01:14:23;;;;;;;3.20;1.95;;;;;;;25.09;60.15;100468.13;5073430;28;20388;-58
2023/06/14 01:16:53;;;;;;;2.60;1.60;;;;;;;25.09;60.31;100468.13;5071750;28;20052;-58
2023/06/14 01:19:25;;;;;;;3.65;2.35;;;;;;;25.09;60.25;100471.69;5073291;28;20053;-58
2023/06/14 01:21:55;;;;;;;4.85;2.03;;;;;;;25.08;60.14;100469.97;5073296;28;20049;-52
2023/06/14 01:24:25;;;;;;;3.72;2.03;;;;;;;25.08;60.13;100471.84;5071850;28;20051;-51
2023/06/14 01:26:55;;;;;;;2.67;1.73;;;;;;;25.09;59.96;100468.13;5071884;28;20416;-50
2023/06/14 01:29:25;;;;;;;3.95;2.05;;;;;;;25.09;59.58;100466.28;5071741;28;20052;-51
2023/06/14 01:31:54;;;;;;;4.85;2.10;;;;;;;25.09;59.85;100466.28;5089055;28;20051;-51
2023/06/14 01:34:21;;;;;;;3.40;2.15;;;;;;;25.08;59.61;100461.84;5073215;28;20040;-51
2023/06/14 01:36:54;;;;;;;3.88;2.00;;;;;;;25.08;59.61;100459.16;5072358;28;20057;-50
2023/06/14 01:39:23;;;;;;;3.20;1.85;;;;;;;25.08;59.73;100456.44;5072013;28;20048;-53
2023/06/14 01:41:52;;;;;;;2.72;1.90;;;;;;;25.08;59.83;100453.72;5071606;28;20060;-57
2023/06/14 01:44:20;;;;;;;5.38;2.42;;;;;;;25.09;59.53;100446.47;5073049;28;20040;-58
2023/06/14 01:46:48;;;;;;;3.42;1.80;;;;;;;25.09;59.64;100449.19;5073028;28;20047;-58
2023/06/14 01:49:15;;;;;;;3.17;1.50;;;;;;;25.09;59.41;100444.59;5073150;28;20044;-58
2023/06/14 01:51:43;;;;;;;2.78;1.95;;;;;;;25.09;59.43;100446.47;5071905;28;20432;-53
2023/06/14 01:54:10;;;;;;;4.95;1.88;;;;;;;25.09;59.42;100438.34;5073080;28;20052;-50
2023/06/14 01:56:38;;;;;;;3.75;1.95;;;;;;;25.08;59.36;100439.34;5072255;28;20375;-52
2023/06/14 01:59:05;;;;;;;3.40;1.95;;;;;;;25.08;59.24;100437.47;5071915;28;20053;-52
2023/06/14 02:01:34;;;;;;;4.75;2.35;;;;;;;25.08;59.51;100437.47;5071893;28;20056;-52
2023/06/14 02:04:01;;;;;;;3.50;1.80;;;;;;;25.08;59.24;100440.19;5072463;28;20056;-51
2023/06/14 02:06:29;;;;;;;4.03;1.75;;;;;;;25.07;59.36;100429.50;5088881;28;20060;-51
2023/06/14 02:08:56;;;;;;;3.75;2.10;;;;;;;25.07;59.22;100429.50;5072855;28;20044;-51
2023/06/14 02:11:25;;;;;;;4.40;2.05;;;;;;;25.07;59.27;100430.34;5072893;28;20499;-53
2023/06/14 02:13:53;;;;;;;4.43;1.85;;;;;;;25.08;59.23;100433.94;5073211;28;20056;-51
2023/06/14 02:16:20;;;;;;;3.05;1.90;;;;;;;25.07;59.36;100435.75;5072973;28;20044;-53
2023/06/14 02:18:48;;;;;;;5.25;2.13;;;;;;;25.08;59.30;100444.75;5071766;28;20056;-54
2023/06/14 02:21:16;;;;;;;3.45;1.80;;;;;;;25.08;59.26;100442.06;5073001;28;20413;-54
2023/06/14 02:23:46;;;;;;;2.75;1.80;;;;;;;25.07;59.23;100435.75;5072832;28;20044;-54
2023/06/14 02:26:13;;;;;;;4.03;1.88;;;;;;;25.08;59.27;100431.22;5072916;28;20214;-53
2023/06/14 02:28:40;;;;;;;3.75;2.15;;;;;;;25.07;59.38;100435.75;5072826;28;20044;-53
2023/06/14 02:31:08;;;;;;;5.60;1.90;;;;;;;25.06;59.30;100434.09;5073181;28;20048;-57
2023/06/14 02:33:36;;;;;;;3.67;1.70;;;;;;;25.07;59.01;100435.75;5072678;28;20048;-58
2023/06/14 02:36:03;;;;;;;2.70;1.50;;;;;;;25.06;59.18;100431.38;5088646;28;20056;-58
2023/06/14 02:38:34;;;;;;;4.35;1.65;;;;;;;25.08;59.07;100431.22;5072876;28;20061;-58
2023/06/14 02:41:02;;;;;;;2.47;1.48;;;;;;;25.07;58.97;100437.63;5073250;28;20040;-57
2023/06/14 02:43:29;;;;;;;3.25;1.75;;;;;;;25.06;59.36;100434.09;5076387;28;20036;-58
2023/06/14 02:45:58;;;;;;;2.72;1.42;;;;;;;25.07;59.28;100430.34;5092127;28;20057;-57
2023/06/14 02:48:27;;;;;;;4.00;1.60;;;;;;;25.07;59.19;100433.06;5076083;28;20047;-58
2023/06/14 02:50:56;;;;;;;2.50;1.60;;;;;;;25.08;58.94;100432.06;5076099;28;20051;-57
2023/06/14 02:53:23;;;;;;;3.10;1.60;;;;;;;25.07;59.30;100426.81;5091795;28;20048;-57
2023/06/14 02:55:51;;;;;;;2.92;1.48;;;;;;;25.07;59.18;100433.06;5076042;28;20055;-58
2023/06/14 02:58:19;;;;;;;4.10;2.00;;;;;;;25.07;59.32;100435.75;5058638;28;20056;-58
2023/06/14 03:00:46;;;;;;;3.70;1.58;;;;;;;25.06;59.15;100439.50;5074609;28;20052;-52
2023/06/14 03:03:16;;;;;;;3.38;1.38;;;;;;;25.07;59.17;100435.75;5091738;28;20044;-52
2023/06/14 03:05:51;;;;;;;5.43;1.50;;;;;;;25.07;59.19;100441.19;5074352;28;20048;-52
2023/06/14 03:08:26;;;;;;;2.38;1.67;;;;;;;25.08;58.92;100429.34;5074882;28;20052;-51
2023/06/14 03:10:56;;;;;;;3.20;1.70;;;;;;;25.07;59.10;100433.06;5074453;28;20059;-57
2023/06/14 03:13:24;;;;;;;3.08;1.73;;;;;;;25.07;58.81;100435.75;5058112;28;20464;-57
2023/06/14 03:15:52;;;;;;;2.45;1.27;;;;;;;25.07;58.93;100427.63;5074582;28;20527;-57
2023/06/14 03:18:22;;;;;;;2.55;1.50;;;;;;;25.07;58.94;100432.22;5058158;28;20056;-57
2023/06/14 03:20:56;;;;;;;3.67;1.60;;;;;;;25.07;59.04;100432.22;5073763;28;20072;-57
2023/06/14 03:23:25;;;;;;;2.65;1.75;;;;;;;25.06;59.06;100434.09;5074519;28;20048;-57
2023/06/14 03:25:53;;;;;;;2.67;1.52;;;;;;;25.05;58.81;100429.69;5074674;28;20055;-57
2023/06/14 03:28:21;;;;;;;4.50;1.27;;;;;;;25.06;58.64;100433.25;5074471;28;20052;-57
2023/06/14 03:30:49;;;;;;;4.50;1.75;;;;;;;25.06;58.66;100430.53;5074334;28;20048;-52
2023/06/14 03:33:17;;;;;;;3.65;2.00;;;;;;;25.06;58.68;100435.94;5091104;28;20519;-53
2023/06/14 03:35:45;;;;;;;2.40;1.30;;;;;;;25.05;58.84;100427.00;5073965;28;20400;-54
2023/06/14 03:38:12;;;;;;;3.42;1.65;;;;;;;25.05;58.63;100428.84;5075256;28;20051;-50
2023/06/14 03:40:40;;;;;;;3.10;1.88;;;;;;;25.04;58.83;100436.16;5074529;28;20059;-51
2023/06/14 03:43:08;;;;;;;4.10;1.90;;;;;;;25.04;58.64;100441.56;5075140;28;20499;-50
2023/06/14 03:45:35;;;;;;;3.90;1.83;;;;;;;25.04;58.72;100446.97;5075069;28;20048;-51
2023/06/14 03:48:03;;;;;;;2.65;1.50;;;;;;;25.03;58.54;100445.28;5090799;28;20388;-52
2023/06/14 03:50:32;;;;;;;3.58;1.40;;;;;;;25.04;58.50;100446.13;5090769;28;20056;-57
2023/06/14 03:53:01;;;;;;;3.47;1.90;;;;;;;25.04;58.46;100443.44;5074248;28;20043;-51
2023/06/14 03:55:31;;;;;;;3.83;1.50;;;;;;;25.04;58.43;100454.25;5073560;28;20420;-50
2023/06/14 03:58:02;;;;;;;3.72;1.63;;;;;;;25.03;58.69;100450.69;5074011;28;20049;-53
2023/06/14 04:00:30;;;;;;;2.50;1.58;;;;;;;25.04;58.43;100446.13;5090510;28;20052;-57
2023/06/14 04:02:57;;;;;;;3.40;1.60;;;;;;;25.03;58.55;100449.84;5073418;28;20056;-57
2023/06/14 04:05:26;;;;;;;2.53;1.77;;;;;;;25.03;58.43;100447.97;5057187;28;20496;-57
2023/06/14 04:07:55;;;;;;;4.57;2.03;;;;;;;25.03;58.47;100442.56;5072980;28;20520;-57
2023/06/14 04:10:23;;;;;;;2.38;1.38;;;;;;;25.01;58.48;100447.31;5074387;28;20056;-58
2023/06/14 04:12:51;;;;;;;2.92;1.95;;;;;;;25.02;58.62;100453.59;5073982;28;20040;-54
2023/06/14 04:15:19;;;;;;;2.88;1.73;;;;;;;25.02;58.57;100459.84;5073139;28;20056;-54
2023/06/14 04:17:51;;;;;;;;;;;;;;;25.01;58.58;100452.75;5090343;28;20051;-50
2023/06/14 04:20:24;;;;;;;2.83;1.70;;;;;;;25.01;58.63;100455.47;5072528;28;19927;-52
2023/06/14 04:22:52;;;;;;;2.75;1.50;;;;;;;25.02;58.51;100461.72;5073060;28;20641;-57
2023/06/14 04:25:20;;;;;;;2.78;1.48;;;;;;;25.01;58.42;100463.56;5073151;28;20053;-57
2023/06/14 04:27:52;;;;;;;3.55;1.70;;;;;;;25.01;58.82;100470.88;5073273;28;20408;-57
2023/06/14 04:30:27;;;;;;;3.58;1.95;;;;;;;25.00;58.87;100467.31;5073066;28;20056;-58
2023/06/14 04:32:55;;;;;;;3.45;1.80;;;;;;;25.02;58.53;100469.84;5074186;28;20056;-58
2023/06/14 04:35:23;;;;;;;3.58;1.98;;;;;;;25.02;58.72;100477.97;5073186;28;20052;-57
2023/06/14 04:37:53;;;;;;;2.60;1.60;;;;;;;25.02;58.61;100486.09;5056345;28;20079;-57
2023/06/14 04:40:21;;;;;;;2.72;1.67;;;;;;;25.01;58.50;100479.81;5072603;28;20509;-57
2023/06/14 04:42:50;;;;;;;3.38;1.73;;;;;;;25.01;58.73;100479.81;5073206;28;20512;-53
2023/06/14 04:45:19;;;;;;;2.88;1.50;;;;;;;25.01;58.49;100479.81;5089768;28;20048;-52
2023/06/14 04:47:47;;;;;;;2.58;1.75;;;;;;;25.01;58.58;100482.53;5072704;28;20048;-53
2023/06/14 04:50:14;;;;;;;3.28;1.70;;;;;;;25.02;58.48;100477.97;5055992;28;20048;-51
2023/06/14 04:52:42;;;;;;;4.65;1.83;;;;;;;25.01;58.62;100485.25;5072424;28;20053;-50
2023/06/14 04:55:10;;;;;;;2.63;1.50;;;;;;;25.00;58.13;100483.56;5072868;28;20048;-54
2023/06/14 04:57:38;;;;;;;4.82;1.92;;;;;;;25.00;58.42;100488.97;5089605;28;20511;-51
2023/06/14 05:00:07;;;;;;;4.30;1.58;;;;;;;25.01;58.29;100495.25;5089324;28;20067;-51
2023/06/14 05:02:35;;;;;;;2.65;1.40;;;;;;;25.01;58.17;100496.06;5072157;28;20500;-57
2023/06/14 05:05:04;;;;;;;3.40;1.88;;;;;;;25.02;58.52;100494.22;5088217;28;20496;-57
2023/06/14 05:07:33;;;;;;;2.85;1.60;;;;;;;25.00;58.14;100497.09;5072669;28;20048;-57
2023/06/14 05:10:01;;;;;;;2.80;1.70;;;;;;;25.01;58.37;100489.81;5072437;28;20622;-57
2023/06/14 05:12:29;;;;;;;4.10;2.08;;;;;;;25.01;58.14;100489.81;5089529;28;20063;-57
2023/06/14 05:14:58;;;;;;;2.78;1.30;;;;;;;24.99;58.49;100495.41;5089237;28;20060;-57
2023/06/14 05:17:27;;;;;;;6.28;1.77;;;;;;;25.01;58.17;100511.50;5089257;28;20056;-57
2023/06/14 05:19:55;;;;;;;3.15;1.92;;;;;;;25.00;58.50;100507.94;5073412;28;20048;-58
2023/06/14 05:22:23;;;;;;;4.30;1.85;;;;;;;25.00;58.28;100507.94;5073251;28;20370;-53
2023/06/14 05:24:50;;;;;;;2.65;1.55;;;;;;;25.01;58.19;100508.78;5073062;28;20040;-51
2023/06/14 05:27:18;;;;;;;3.65;1.73;;;;;;;25.00;58.27;100507.94;5072649;28;20059;-53
2023/06/14 05:29:45;;;;;;;2.70;1.33;;;;;;;24.99;58.14;100497.25;5073287;28;20081;-53
2023/06/14 05:32:13;;;;;;;4.10;1.35;;;;;;;25.00;58.45;100493.56;5073431;28;20366;-57
2023/06/14 05:34:40;;;;;;;2.55;1.45;;;;;;;24.99;58.55;100489.97;5073144;28;20048;-58
2023/06/14 05:37:07;;;;;;;3.08;1.73;;;;;;;25.00;58.30;100493.56;5073265;28;20055;-58
2023/06/14 05:39:35;;;;;;;3.20;1.40;;;;;;;25.01;58.60;100495.25;5073542;28;20052;-58
2023/06/14 05:42:02;;;;;;;2.70;1.52;;;;;;;25.00;58.66;100488.16;5073882;28;20392;-53
2023/06/14 05:44:30;;;;;;;2.00;1.20;;;;;;;25.00;58.72;100497.09;5072983;28;20043;-51
2023/06/14 05:46:57;;;;;;;2.50;1.45;;;;;;;25.01;58.69;100497.94;5073313;28;20063;-53
2023/06/14 05:49:25;;;;;;;3.85;1.50;;;;;;;25.01;58.35;100489.81;5073006;28;20045;-50
2023/06/14 05:51:52;;;;;;;2.60;1.35;;;;;;;25.01;58.71;100493.38;5073094;28;20045;-57
2023/06/14 05:54:19;;;;;;;5.47;2.13;;;;;;;25.01;58.56;100487.94;5055293;28;20485;-57
2023/06/14 05:56:46;;;;;;;3.00;1.63;;;;;;;25.02;58.58;100488.78;5072712;28;20059;-58
2023/06/14 05:59:14;;;;;;;2.78;1.45;;;;;;;25.01;58.64;100487.94;5072779;28;20044;-58
2023/06/14 06:01:41;;;;;;;3.45;1.90;;;;;;;25.02;58.51;100491.50;5073072;28;20404;-51
2023/06/14 06:04:09;;;;;;;3.47;1.55;;;;;;;25.01;58.43;100493.38;5073003;28;20511;-50
2023/06/14 06:06:36;;;;;;;2.88;1.45;;;;;;;25.01;58.77;100496.06;5072979;28;20044;-50
2023/06/14 06:09:04;;;;;;;4.10;1.98;;;;;;;25.02;58.52;100499.63;5072838;28;20052;-51
2023/06/14 06:11:32;;;;;;;4.00;1.75;;;;;;;25.03;58.53;100506.72;5073107;28;20045;-58
2023/06/14 06:14:18;;;;;;;2.67;1.55;;;;;;;25.02;58.74;100502.34;5072610;28;20055;-58
2023/06/14 06:16:46;;;;;;;3.28;1.60;;;;;;;25.01;58.79;100501.50;5074466;28;20055;-58
2023/06/14 06:19:13;;;;;;;3.45;1.25;;;;;;;25.02;59.01;100502.34;5076601;28;20045;-58
2023/06/14 06:21:41;;;;;;;2.53;1.38;;;;;;;25.03;59.03;100495.88;5076660;28;20518;-54
2023/06/14 06:24:08;;;;;;;2.33;1.40;;;;;;;25.01;58.66;100501.50;5076518;28;20037;-53
2023/06/14 06:26:36;;;;;;;4.15;2.03;;;;;;;25.03;58.72;100502.16;5076309;28;20416;-52
2023/06/14 06:29:03;;;;;;;2.88;1.83;;;;;;;25.03;58.89;100499.44;5076370;28;20048;-52
2023/06/14 06:31:31;;;;;;;3.78;1.40;;;;;;;25.03;58.66;100504.84;5075915;28;20040;-50
2023/06/14 06:33:58;;;;;;;2.42;1.05;;;;;;;25.02;58.75;100511.31;5076220;28;20037;-50
2023/06/14 06:36:25;;;;;;;2.97;1.45;;;;;;;25.03;59.19;100499.44;5076070;28;20051;-51
2023/06/14 06:38:53;;;;;;;1.90;1.10;;;;;;;25.02;59.00;100503.16;5076151;28;20044;-53
2023/06/14 06:41:20;;;;;;;2.83;1.10;;;;;;;25.03;58.84;100504.84;5076419;28;20472;-51
2023/06/14 06:43:48;;;;;;;2.55;1.00;;;;;;;25.03;58.85;100504.84;5076142;28;20051;-53
2023/06/14 06:46:18;;;;;;;3.00;1.20;;;;;;;25.04;58.96;100503.84;5075236;28;20053;-50
2023/06/14 06:48:46;;;;;;;3.45;1.75;;;;;;;25.05;59.11;100523.66;5075609;28;20400;-50
2023/06/14 06:51:14;;;;;;;3.97;1.95;;;;;;;25.03;58.59;100521.09;5081054;28;20052;-55
2023/06/14 06:53:43;;;;;;;4.35;2.72;;;;;;;24.99;58.06;100530.59;5096098;28;20052;-55
2023/06/14 06:56:15;;;;;;;4.90;2.70;;;;;;;24.95;57.49;100528.44;5095844;28;20047;-55
2023/06/14 06:58:43;;;;;;;5.15;3.05;;;;;;;24.88;57.43;100528.31;5096188;28;20499;-55
2023/06/14 07:01:11;;;;;;;4.53;2.88;;;;;;;24.86;57.26;100531.16;5087241;28;20043;-56
2023/06/14 07:03:38;;;;;;;5.03;3.17;;;;;;;24.83;57.35;100531.53;5096320;28;20056;-56
2023/06/14 07:06:06;;;;;;;5.05;2.70;;;;;;;24.84;57.56;100526.97;5096040;28;20044;-56
2023/06/14 07:08:34;;;;;;;4.97;3.05;;;;;;;24.87;57.77;100532.00;5095969;28;20048;-51
2023/06/14 07:11:02;;;;;;;5.03;2.40;;;;;;;24.90;57.69;100532.50;5095852;28;20048;-56
2023/06/14 07:13:29;;;;;;;5.55;3.28;;;;;;;24.96;58.15;100543.69;5096174;28;20415;-55
2023/06/14 07:16:00;;;;;;;4.25;2.50;;;;;;;24.98;58.06;100537.03;5095909;28;20047;-54
2023/06/14 07:18:29;;;;;;;4.63;2.72;;;;;;;25.01;58.19;100534.00;5094635;28;20052;-56
2023/06/14 07:20:57;;;;;;;4.90;2.47;;;;;;;25.02;58.24;100540.25;5095533;28;20048;-56
2023/06/14 07:23:24;;;;;;;4.25;2.65;;;;;;;25.02;58.33;100551.94;5095506;28;20472;-56
2023/06/14 07:25:52;;;;;;;5.50;2.97;;;;;;;25.04;58.68;100539.06;5095612;28;20040;-58
2023/06/14 07:28:20;;;;;;;5.53;2.90;;;;;;;25.07;58.63;100548.69;5094779;28;20048;-60
2023/06/14 07:30:48;;;;;;;6.28;3.58;;;;;;;25.08;58.44;100551.25;5095182;28;20400;-60
2023/06/14 07:33:15;;;;;;;7.30;4.25;;;;;;;25.07;58.61;100554.94;5095136;28;20052;-58
2023/06/14 07:35:43;;;;;;;7.68;4.50;;;;;;;25.07;58.57;100551.38;5086125;28;20040;-55
2023/06/14 07:38:10;;;;;;;6.80;4.55;;;;;;;25.03;58.75;100556.31;5074434;28;20055;-50
2023/06/14 07:40:37;;;;;;;5.97;4.45;;;;;;;24.99;59.01;100560.38;5075190;28;20052;-54
2023/06/14 07:43:05;;;;;;;7.82;4.30;;;;;;;24.97;58.80;100558.91;5074887;28;20040;-53
2023/06/14 07:45:32;;;;;;;5.82;4.45;;;;;;;24.96;59.47;100563.47;5075097;28;20041;-54
2023/06/14 07:48:00;;;;;;;5.47;4.13;;;;;;;24.92;59.75;100552.16;5074998;28;20050;-54
2023/06/14 07:50:28;;;;;;;5.30;3.80;;;;;;;24.91;59.43;100561.31;5074839;28;20067;-54
2023/06/14 07:52:56;;;;;;;6.22;4.00;;;;;;;24.91;59.78;100553.19;5074812;28;20044;-54
2023/06/14 07:55:25;;;;;;;5.55;3.63;;;;;;;24.92;59.55;100562.13;5074462;28;20041;-57
2023/06/14 07:57:52;;;;;;;7.93;5.32;;;;;;;24.84;59.30;100570.28;5074665;28;20040;-58
2023/06/14 08:00:20;;;;;;;5.75;4.40;;;;;;;24.76;59.37;100556.78;5078396;28;20062;-57
2023/06/14 08:02:47;;;;;;;5.50;4.18;;;;;;;24.72;59.43;100556.28;5085193;28;20368;-57
2023/06/14 08:05:15;;;;;;;5.78;3.95;;;;;;;24.73;60.02;100559.84;5094475;28;20040;-58
2023/06/14 08:07:43;;;;;;;6.60;3.97;;;;;;;24.71;60.02;100551.88;5083075;28;20158;-58
2023/06/14 08:10:10;;;;;;;5.95;4.18;;;;;;;24.72;60.03;100560.84;5091090;28;20051;-58
2023/06/14 08:12:38;;;;;;;6.03;4.50;;;;;;;24.72;60.01;100560.84;5093827;28;20075;-54
2023/06/14 08:15:05;;;;;;;5.43;4.55;;;;;;;24.69;59.73;100567.44;5094387;28;20035;-55
2023/06/14 08:17:45;;;;;;;5.40;4.30;;;;;;;24.66;59.50;100568.63;5093960;28;20388;-54
2023/06/14 08:20:13;;;;;;;5.13;4.10;;;;;;;24.64;59.60;100562.56;5089928;28;20048;-53
2023/06/14 08:22:42;;;;;;;5.43;3.83;;;;;;;24.67;59.60;100564.94;5081237;28;20396;-50
2023/06/14 08:25:11;;;;;;;5.18;3.05;;;;;;;24.68;59.94;100563.06;5090323;28;20048;-51
2023/06/14 08:27:39;;;;;;;5.22;3.15;;;;;;;24.73;59.93;100573.38;5090058;28;20059;-52
2023/06/14 08:30:08;;;;;;;5.65;3.65;;;;;;;24.74;60.27;100575.88;5083324;28;20052;-51
2023/06/14 08:32:35;;;;;;;5.30;3.75;;;;;;;24.75;60.15;100571.31;5087808;28;20048;-57
2023/06/14 08:35:04;;;;;;;5.65;4.35;;;;;;;24.75;60.16;100572.16;5077082;28;20036;-57
2023/06/14 08:37:35;;;;;;;6.00;4.85;;;;;;;24.70;60.19;100581.81;5091922;28;20051;-58
2023/06/14 08:40:05;;;;;;;5.93;4.53;;;;;;;24.71;59.70;100580.81;5084161;28;20391;-57
2023/06/14 08:42:35;;;;;;;6.65;5.95;;;;;;;24.72;59.57;100571.69;5079197;28;20052;-54
2023/06/14 08:45:03;;;;;;;8.55;6.05;;;;;;;24.69;59.73;100566.59;5089840;28;20491;-56
2023/06/14 08:47:36;;;;;;;6.65;4.85;;;;;;;24.66;59.93;100571.34;5078493;28;20040;-55
2023/06/14 08:50:09;;;;;;;5.95;4.95;;;;;;;24.66;60.04;100579.47;5083137;28;20400;-54
2023/06/14 08:53:00;;;;;;;7.53;5.13;;;;;;;24.64;59.95;100586.09;5089522;28;20377;-56
2023/06/14 08:55:28;;;;;;;;;;;;;;;24.59;59.71;100588.44;5084091;28;20066;-57
2023/06/14 08:57:58;;;;;;;6.35;5.68;;;;;;;24.54;59.89;100588.97;5084166;28;19924;-57
2023/06/14 09:00:27;;;;;;;6.50;5.20;;;;;;;24.49;60.02;100588.63;5086050;28;20051;-56
2023/06/14 09:02:57;;;;;;;6.78;5.30;;;;;;;24.47;59.92;100587.97;5076460;28;20048;-58
2023/06/14 09:05:26;;;;;;;6.65;4.95;;;;;;;24.48;59.88;100586.13;5088654;28;20040;-58
2023/06/14 09:07:55;;;;;;;5.85;4.40;;;;;;;24.48;60.21;100581.53;5081220;28;20483;-58
2023/06/14 09:10:22;;;;;;;5.90;4.65;;;;;;;24.52;60.13;100577.47;5091716;28;20464;-55
2023/06/14 09:12:51;;;;;;;6.28;5.05;;;;;;;24.54;60.54;100580.00;5093159;28;20056;-55
2023/06/14 09:15:18;;;;;;;7.80;5.25;;;;;;;24.56;60.93;100584.22;5077004;28;20043;-55
2023/06/14 09:17:46;;;;;;;8.27;5.43;;;;;;;24.58;61.09;100578.63;5078738;28;20039;-54
2023/06/14 09:20:18;;;;;;;6.05;5.18;;;;;;;24.56;60.84;100575.28;5080712;28;20059;-50
2023/06/14 09:22:45;;;;;;;5.47;4.53;;;;;;;24.57;60.62;100575.09;5087997;28;20040;-53
2023/06/14 09:25:15;;;;;;;5.90;4.10;;;;;;;24.63;60.51;100578.94;5075917;28;20045;-52
2023/06/14 09:27:59;;;;;;;6.85;4.28;;;;;;;24.67;60.43;100574.88;5083065;28;20053;-54
2023/06/14 09:30:28;;;;;;;4.35;3.40;;;;;;;24.73;60.43;100581.50;5085703;28;20676;-52
2023/06/14 09:32:56;;;;;;;4.22;3.45;;;;;;;24.78;60.29;100576.38;5076411;28;20049;-55
2023/06/14 09:35:29;;;;;;;5.57;4.75;;;;;;;24.81;61.02;100581.47;5087941;28;20060;-55
2023/06/14 09:37:57;;;;;;;5.65;4.90;;;;;;;24.81;61.38;100570.63;5080933;28;20036;-53
2023/06/14 09:40:27;;;;;;;7.03;4.90;;;;;;;24.82;61.43;100578.56;5079659;28;20047;-56
2023/06/14 09:43:00;;;;;;;5.72;4.40;;;;;;;24.84;61.25;100579.25;5088919;28;20048;-54
2023/06/14 09:45:29;;;;;;;5.68;4.95;;;;;;;24.86;61.10;100574.50;5077159;28;20036;-56
2023/06/14 09:47:58;;;;;;;5.82;4.90;;;;;;;24.82;60.54;100577.72;5084008;28;20048;-53
2023/06/14 09:50:28;;;;;;;4.97;4.30;;;;;;;24.79;60.09;100569.94;5087037;28;20055;-54
2023/06/14 09:53:02;;;;;;;6.32;5.03;;;;;;;24.77;59.89;100574.72;5079711;28;20052;-55
2023/06/14 09:55:34;;;;;;;6.05;5.45;;;;;;;24.76;60.29;100579.28;5096859;28;20395;-55
2023/06/14 09:58:05;;;;;;;6.50;5.37;;;;;;;24.77;59.83;100572.84;5086278;28;20059;-55
2023/06/14 10:00:34;;;;;;;4.68;4.07;;;;;;;24.80;59.90;100574.38;5090209;28;20303;-54
2023/06/14 10:03:12;;;;;;;4.97;4.25;;;;;;;24.82;59.64;100567.75;5079898;28;20059;-55
2023/06/14 10:05:43;;;;;;;6.35;3.65;;;;;;;24.86;59.38;100573.66;5089964;28;20033;-50
2023/06/14 10:08:15;;;;;;;7.30;4.35;;;;;;;24.87;58.25;100568.09;5080375;28;20052;-53
2023/06/14 10:10:44;;;;;;;4.72;3.80;;;;;;;24.89;57.54;100563.31;5090741;28;20051;-57
2023/06/14 10:13:12;;;;;;;3.90;3.20;;;;;;;24.92;57.45;100559.44;5093365;28;20047;-57
2023/06/14 10:15:55;;;;;;;4.80;3.92;;;;;;;24.91;57.97;100558.59;5082035;28;20361;-59
2023/06/14 10:18:44;;;;;;;4.82;3.92;;;;;;;24.91;57.90;100552.31;5084288;28;20048;-59
2023/06/14 10:21:53;;;;;;;4.60;3.85;;;;;;;24.90;57.85;100559.59;5092828;28;20048;-54
2023/06/14 10:24:29;;;;;;;4.93;4.28;;;;;;;24.90;57.74;100553.31;5088036;28;20040;-54
2023/06/14 10:26:58;;;;;;;6.00;4.32;;;;;;;24.88;57.05;100552.69;5078630;28;20060;-55
2023/06/14 10:29:31;;;;;;;5.38;4.28;;;;;;;24.89;56.69;100552.50;5091650;28;20052;-54
2023/06/14 10:32:00;;;;;;;5.93;3.17;;;;;;;24.88;56.12;100545.41;5084877;28;20059;-57
2023/06/14 10:34:31;;;;;;;4.30;3.45;;;;;;;24.90;56.25;100540.63;5082540;28;20052;-57
2023/06/14 10:37:06;;;;;;;4.30;3.50;;;;;;;24.91;55.96;100536.06;5092430;28;20059;-58
2023/06/14 10:39:45;;;;;;;4.25;3.85;;;;;;;24.91;55.68;100541.47;5080996;28;20048;-51
2023/06/14 10:42:14;;;;;;;5.30;3.92;;;;;;;24.90;55.43;100537.94;5084593;28;20048;-56
2023/06/14 10:44:42;;;;;;;4.25;3.60;;;;;;;24.92;55.67;100532.34;5090786;28;20040;-56
2023/06/14 10:47:21;;;;;;;4.75;3.83;;;;;;;24.92;56.03;100525.06;5078498;28;20051;-60
2023/06/14 10:49:51;;;;;;;7.18;4.28;;;;;;;24.92;56.23;100530.47;5082668;28;20054;-59
2023/06/14 10:52:25;;;;;;;5.18;4.53;;;;;;;24.93;56.59;100534.03;5083558;28;20059;-59
2023/06/14 10:54:55;;;;;;;5.97;4.53;;;;;;;24.96;56.71;100522.00;5083676;28;20048;-59
2023/06/14 10:57:23;;;;;;;4.70;4.20;;;;;;;24.96;56.88;100522.84;5077541;28;20062;-55
2023/06/14 10:59:51;;;;;;;5.45;4.70;;;;;;;24.96;56.83;100520.16;5082407;28;20051;-56
2023/06/14 11:02:21;;;;;;;4.93;4.40;;;;;;;24.98;56.84;100517.25;5082137;28;20412;-54
2023/06/14 11:04:53;;;;;;;5.45;4.13;;;;;;;24.98;56.74;100518.09;5090855;28;20044;-54
2023/06/14 11:07:58;;;;;;;5.28;3.88;;;;;;;24.99;56.73;100513.50;5078200;28;20039;-54
2023/06/14 11:10:41;;;;;;;4.43;3.97;;;;;;;25.00;56.85;100509.81;5085572;28;20047;-56
2023/06/14 11:13:09;;;;;;;4.55;3.70;;;;;;;25.00;56.59;100515.22;5093484;28;20047;-51
2023/06/14 11:15:37;;;;;;;4.60;3.67;;;;;;;25.00;56.62;100501.69;5089093;28;20049;-54
2023/06/14 11:18:07;;;;;;;3.70;3.30;;;;;;;25.01;57.00;100504.19;5084711;28;20056;-53
2023/06/14 11:20:35;;;;;;;4.13;3.72;;;;;;;25.01;57.04;100509.63;5080681;28;20045;-56
2023/06/14 11:23:04;;;;;;;5.05;4.28;;;;;;;25.02;56.92;100503.16;5090762;28;20063;-56
2023/06/14 11:25:32;;;;;;;4.68;4.13;;;;;;;25.03;56.88;100504.84;5080096;28;20047;-57
2023/06/14 11:28:00;;;;;;;4.93;4.00;;;;;;;25.04;57.23;100503.84;5085207;28;20060;-54
2023/06/14 11:30:27;;;;;;;5.43;4.15;;;;;;;25.06;57.03;100504.50;5086886;28;20044;-55
2023/06/14 11:32:57;;;;;;;4.47;3.70;;;;;;;25.08;57.11;100498.94;5077646;28;20053;-57
2023/06/14 11:35:26;;;;;;;3.63;3.28;;;;;;;25.09;57.29;100496.06;5090283;28;20480;-57
2023/06/14 11:37:58;;;;;;;4.85;3.88;;;;;;;25.09;57.10;100493.34;5082462;28;20503;-57